sensor_id;sensor_type;location;lat;lon;timestamp;P1;durP1;ratioP1;P2;durP2;ratioP2
21949;SDS011;11139;51.284;7.226;2024-03-06T00:00:47;12.52;;;10.15;;
21949;SDS011;11139;51.284;7.226;2024-03-06T00:03:13;18.40;;;11.82;;
21949;SDS011;11139;51.284;7.226;2024-03-06T00:05:39;12.90;;;9.60;;
21949;SDS011;11139;51.284;7.226;2024-03-06T00:08:04;14.98;;;10.68;;
21949;SDS011;11139;51.284;7.226;2024-03-06T00:10:30;12.85;;;9.38;;
21949;SDS011;11139;51.284;7.226;2024-03-06T00:12:56;14.32;;;11.10;;
21949;SDS011;11139;51.284;7.226;2024-03-06T00:15:21;13.27;;;10.40;;
21949;SDS011;11139;51.284;7.226;2024-03-06T00:17:47;13.50;;;10.18;;
21949;SDS011;11139;51.284;7.226;2024-03-06T00:20:13;13.50;;;10.18;;
21949;SDS011;11139;51.284;7.226;2024-03-06T00:22:39;12.82;;;9.77;;
21949;SDS011;11139;51.284;7.226;2024-03-06T00:25:05;13.52;;;10.25;;
21949;SDS011;11139;51.284;7.226;2024-03-06T00:27:31;15.77;;;10.35;;
21949;SDS011;11139;51.284;7.226;2024-03-06T00:29:56;11.95;;;9.77;;
21949;SDS011;11139;51.284;7.226;2024-03-06T00:32:22;12.73;;;10.15;;
21949;SDS011;11139;51.284;7.226;2024-03-06T00:34:48;13.98;;;9.60;;
21949;SDS011;11139;51.284;7.226;2024-03-06T00:37:14;12.57;;;9.93;;
21949;SDS011;11139;51.284;7.226;2024-03-06T00:39:40;13.70;;;9.98;;
21949;SDS011;11139;51.284;7.226;2024-03-06T00:42:05;12.18;;;9.65;;
21949;SDS011;11139;51.284;7.226;2024-03-06T00:44:34;13.80;;;9.35;;
21949;SDS011;11139;51.284;7.226;2024-03-06T00:46:59;11.48;;;9.98;;
21949;SDS011;11139;51.284;7.226;2024-03-06T00:49:25;13.18;;;9.63;;
21949;SDS011;11139;51.284;7.226;2024-03-06T00:51:51;12.73;;;9.07;;
21949;SDS011;11139;51.284;7.226;2024-03-06T00:54:16;11.80;;;9.32;;
21949;SDS011;11139;51.284;7.226;2024-03-06T00:56:42;11.60;;;9.27;;
21949;SDS011;11139;51.284;7.226;2024-03-06T00:59:08;11.65;;;9.00;;
21949;SDS011;11139;51.284;7.226;2024-03-06T01:01:34;11.55;;;9.90;;
21949;SDS011;11139;51.284;7.226;2024-03-06T01:03:59;11.15;;;9.20;;
21949;SDS011;11139;51.284;7.226;2024-03-06T01:06:25;12.82;;;9.82;;
21949;SDS011;11139;51.284;7.226;2024-03-06T01:08:51;12.88;;;8.88;;
21949;SDS011;11139;51.284;7.226;2024-03-06T01:11:17;10.63;;;8.55;;
21949;SDS011;11139;51.284;7.226;2024-03-06T01:13:42;12.18;;;8.82;;
21949;SDS011;11139;51.284;7.226;2024-03-06T01:16:08;11.18;;;8.77;;
21949;SDS011;11139;51.284;7.226;2024-03-06T01:18:33;10.65;;;8.70;;
21949;SDS011;11139;51.284;7.226;2024-03-06T01:20:59;10.88;;;8.90;;
21949;SDS011;11139;51.284;7.226;2024-03-06T01:23:25;10.63;;;8.40;;
21949;SDS011;11139;51.284;7.226;2024-03-06T01:25:50;10.73;;;8.82;;
21949;SDS011;11139;51.284;7.226;2024-03-06T01:28:16;10.52;;;7.93;;
21949;SDS011;11139;51.284;7.226;2024-03-06T01:30:43;10.55;;;8.60;;
21949;SDS011;11139;51.284;7.226;2024-03-06T01:33:08;11.43;;;8.93;;
21949;SDS011;11139;51.284;7.226;2024-03-06T01:35:34;11.65;;;8.65;;
21949;SDS011;11139;51.284;7.226;2024-03-06T01:38:00;11.32;;;9.02;;
21949;SDS011;11139;51.284;7.226;2024-03-06T01:40:26;10.85;;;8.27;;
21949;SDS011;11139;51.284;7.226;2024-03-06T01:42:54;10.05;;;7.85;;
21949;SDS011;11139;51.284;7.226;2024-03-06T01:45:19;11.63;;;8.23;;
21949;SDS011;11139;51.284;7.226;2024-03-06T01:47:45;12.38;;;8.75;;
21949;SDS011;11139;51.284;7.226;2024-03-06T01:50:11;9.32;;;7.72;;
21949;SDS011;11139;51.284;7.226;2024-03-06T01:52:37;10.75;;;8.25;;
21949;SDS011;11139;51.284;7.226;2024-03-06T01:55:05;10.52;;;8.68;;
21949;SDS011;11139;51.284;7.226;2024-03-06T01:57:32;12.73;;;9.27;;
21949;SDS011;11139;51.284;7.226;2024-03-06T01:59:59;13.65;;;9.57;;
21949;SDS011;11139;51.284;7.226;2024-03-06T02:02:26;11.68;;;9.00;;
21949;SDS011;11139;51.284;7.226;2024-03-06T02:04:53;12.50;;;9.60;;
21949;SDS011;11139;51.284;7.226;2024-03-06T02:07:19;13.38;;;9.75;;
21949;SDS011;11139;51.284;7.226;2024-03-06T02:09:46;15.63;;;10.75;;
21949;SDS011;11139;51.284;7.226;2024-03-06T02:12:12;14.30;;;9.75;;
21949;SDS011;11139;51.284;7.226;2024-03-06T02:14:38;14.02;;;10.32;;
21949;SDS011;11139;51.284;7.226;2024-03-06T02:17:04;13.98;;;9.65;;
21949;SDS011;11139;51.284;7.226;2024-03-06T02:19:43;13.57;;;9.05;;
21949;SDS011;11139;51.284;7.226;2024-03-06T02:22:09;14.30;;;9.60;;
21949;SDS011;11139;51.284;7.226;2024-03-06T02:24:36;15.38;;;10.10;;
21949;SDS011;11139;51.284;7.226;2024-03-06T02:27:02;13.57;;;10.35;;
21949;SDS011;11139;51.284;7.226;2024-03-06T02:29:30;13.27;;;9.95;;
21949;SDS011;11139;51.284;7.226;2024-03-06T02:31:57;15.43;;;10.52;;
21949;SDS011;11139;51.284;7.226;2024-03-06T02:34:23;16.52;;;11.55;;
21949;SDS011;11139;51.284;7.226;2024-03-06T02:36:50;13.90;;;10.00;;
21949;SDS011;11139;51.284;7.226;2024-03-06T02:39:17;13.88;;;10.15;;
21949;SDS011;11139;51.284;7.226;2024-03-06T02:41:42;17.88;;;10.27;;
21949;SDS011;11139;51.284;7.226;2024-03-06T02:44:08;14.80;;;9.90;;
21949;SDS011;11139;51.284;7.226;2024-03-06T02:46:34;14.85;;;10.52;;
21949;SDS011;11139;51.284;7.226;2024-03-06T02:49:00;16.40;;;10.25;;
21949;SDS011;11139;51.284;7.226;2024-03-06T02:51:25;15.35;;;10.55;;
21949;SDS011;11139;51.284;7.226;2024-03-06T02:53:51;14.07;;;10.50;;
21949;SDS011;11139;51.284;7.226;2024-03-06T02:56:18;13.15;;;10.30;;
21949;SDS011;11139;51.284;7.226;2024-03-06T02:58:44;17.20;;;10.95;;
21949;SDS011;11139;51.284;7.226;2024-03-06T03:01:10;18.33;;;11.10;;
21949;SDS011;11139;51.284;7.226;2024-03-06T03:03:40;15.32;;;11.23;;
21949;SDS011;11139;51.284;7.226;2024-03-06T03:06:06;15.65;;;11.10;;
21949;SDS011;11139;51.284;7.226;2024-03-06T03:08:32;16.25;;;11.50;;
21949;SDS011;11139;51.284;7.226;2024-03-06T03:10:57;15.55;;;10.48;;
21949;SDS011;11139;51.284;7.226;2024-03-06T03:13:23;16.88;;;10.85;;
21949;SDS011;11139;51.284;7.226;2024-03-06T03:15:49;16.00;;;10.13;;
21949;SDS011;11139;51.284;7.226;2024-03-06T03:18:16;15.23;;;10.95;;
21949;SDS011;11139;51.284;7.226;2024-03-06T03:20:42;16.50;;;11.23;;
21949;SDS011;11139;51.284;7.226;2024-03-06T03:23:07;14.63;;;10.77;;
21949;SDS011;11139;51.284;7.226;2024-03-06T03:25:37;14.13;;;9.75;;
21949;SDS011;11139;51.284;7.226;2024-03-06T03:28:03;15.32;;;11.38;;
21949;SDS011;11139;51.284;7.226;2024-03-06T03:30:29;16.13;;;11.65;;
21949;SDS011;11139;51.284;7.226;2024-03-06T03:32:54;16.45;;;11.25;;
21949;SDS011;11139;51.284;7.226;2024-03-06T03:35:20;16.33;;;10.10;;
21949;SDS011;11139;51.284;7.226;2024-03-06T03:37:50;14.05;;;10.25;;
21949;SDS011;11139;51.284;7.226;2024-03-06T03:40:18;15.35;;;10.82;;
21949;SDS011;11139;51.284;7.226;2024-03-06T03:42:44;15.15;;;10.82;;
21949;SDS011;11139;51.284;7.226;2024-03-06T03:45:10;16.17;;;10.90;;
21949;SDS011;11139;51.284;7.226;2024-03-06T03:47:37;15.10;;;11.23;;
21949;SDS011;11139;51.284;7.226;2024-03-06T03:50:02;13.45;;;10.20;;
21949;SDS011;11139;51.284;7.226;2024-03-06T03:52:29;15.73;;;11.40;;
21949;SDS011;11139;51.284;7.226;2024-03-06T03:54:54;17.58;;;11.18;;
21949;SDS011;11139;51.284;7.226;2024-03-06T03:57:20;13.82;;;9.90;;
21949;SDS011;11139;51.284;7.226;2024-03-06T03:59:46;16.58;;;11.25;;
21949;SDS011;11139;51.284;7.226;2024-03-06T04:02:11;14.30;;;10.57;;
21949;SDS011;11139;51.284;7.226;2024-03-06T04:04:37;16.38;;;10.90;;
21949;SDS011;11139;51.284;7.226;2024-03-06T04:07:03;14.98;;;10.27;;
21949;SDS011;11139;51.284;7.226;2024-03-06T04:09:30;15.02;;;10.55;;
21949;SDS011;11139;51.284;7.226;2024-03-06T04:12:00;16.77;;;11.85;;
21949;SDS011;11139;51.284;7.226;2024-03-06T04:14:26;15.35;;;10.15;;
21949;SDS011;11139;51.284;7.226;2024-03-06T04:16:51;15.02;;;10.27;;
21949;SDS011;11139;51.284;7.226;2024-03-06T04:19:17;15.32;;;10.93;;
21949;SDS011;11139;51.284;7.226;2024-03-06T04:21:43;17.17;;;11.73;;
21949;SDS011;11139;51.284;7.226;2024-03-06T04:24:09;16.92;;;11.50;;
21949;SDS011;11139;51.284;7.226;2024-03-06T04:26:35;16.60;;;11.43;;
21949;SDS011;11139;51.284;7.226;2024-03-06T04:29:01;13.07;;;9.90;;
21949;SDS011;11139;51.284;7.226;2024-03-06T04:31:27;15.07;;;10.68;;
21949;SDS011;11139;51.284;7.226;2024-03-06T04:33:53;17.05;;;11.43;;
21949;SDS011;11139;51.284;7.226;2024-03-06T04:36:19;15.80;;;11.13;;
21949;SDS011;11139;51.284;7.226;2024-03-06T04:38:45;13.80;;;10.02;;
21949;SDS011;11139;51.284;7.226;2024-03-06T04:41:11;15.80;;;11.15;;
21949;SDS011;11139;51.284;7.226;2024-03-06T04:43:36;14.85;;;10.38;;
21949;SDS011;11139;51.284;7.226;2024-03-06T04:46:03;14.57;;;10.75;;
21949;SDS011;11139;51.284;7.226;2024-03-06T04:48:29;14.02;;;9.90;;
21949;SDS011;11139;51.284;7.226;2024-03-06T04:50:55;16.48;;;10.30;;
21949;SDS011;11139;51.284;7.226;2024-03-06T04:53:20;15.05;;;10.68;;
21949;SDS011;11139;51.284;7.226;2024-03-06T04:55:46;14.73;;;10.57;;
21949;SDS011;11139;51.284;7.226;2024-03-06T04:58:12;14.02;;;10.57;;
21949;SDS011;11139;51.284;7.226;2024-03-06T05:00:38;12.82;;;9.77;;
21949;SDS011;11139;51.284;7.226;2024-03-06T05:03:03;16.13;;;10.98;;
21949;SDS011;11139;51.284;7.226;2024-03-06T05:05:30;13.23;;;9.13;;
21949;SDS011;11139;51.284;7.226;2024-03-06T05:07:55;15.23;;;10.00;;
21949;SDS011;11139;51.284;7.226;2024-03-06T05:10:21;16.88;;;10.23;;
21949;SDS011;11139;51.284;7.226;2024-03-06T05:12:47;16.65;;;10.43;;
21949;SDS011;11139;51.284;7.226;2024-03-06T05:15:16;14.35;;;10.20;;
21949;SDS011;11139;51.284;7.226;2024-03-06T05:17:42;14.65;;;10.43;;
21949;SDS011;11139;51.284;7.226;2024-03-06T05:20:08;14.82;;;10.25;;
21949;SDS011;11139;51.284;7.226;2024-03-06T05:22:34;12.82;;;9.23;;
21949;SDS011;11139;51.284;7.226;2024-03-06T05:25:00;17.58;;;10.15;;
21949;SDS011;11139;51.284;7.226;2024-03-06T05:27:25;14.40;;;10.07;;
21949;SDS011;11139;51.284;7.226;2024-03-06T05:29:51;15.60;;;10.25;;
21949;SDS011;11139;51.284;7.226;2024-03-06T05:32:17;14.00;;;10.05;;
21949;SDS011;11139;51.284;7.226;2024-03-06T05:34:43;15.07;;;10.13;;
21949;SDS011;11139;51.284;7.226;2024-03-06T05:37:09;16.38;;;10.98;;
21949;SDS011;11139;51.284;7.226;2024-03-06T05:39:35;15.98;;;10.73;;
21949;SDS011;11139;51.284;7.226;2024-03-06T05:42:02;14.68;;;10.27;;
21949;SDS011;11139;51.284;7.226;2024-03-06T05:44:29;15.30;;;10.00;;
21949;SDS011;11139;51.284;7.226;2024-03-06T05:47:02;13.90;;;9.80;;
21949;SDS011;11139;51.284;7.226;2024-03-06T05:49:28;14.68;;;10.20;;
21949;SDS011;11139;51.284;7.226;2024-03-06T05:51:54;15.68;;;11.05;;
21949;SDS011;11139;51.284;7.226;2024-03-06T05:54:20;14.80;;;9.48;;
21949;SDS011;11139;51.284;7.226;2024-03-06T05:56:50;13.93;;;9.50;;
21949;SDS011;11139;51.284;7.226;2024-03-06T05:59:17;15.52;;;10.43;;
21949;SDS011;11139;51.284;7.226;2024-03-06T06:01:43;16.65;;;11.20;;
21949;SDS011;11139;51.284;7.226;2024-03-06T06:04:09;14.02;;;9.80;;
21949;SDS011;11139;51.284;7.226;2024-03-06T06:06:35;15.30;;;10.60;;
21949;SDS011;11139;51.284;7.226;2024-03-06T06:09:01;15.48;;;10.75;;
21949;SDS011;11139;51.284;7.226;2024-03-06T06:11:30;15.75;;;11.15;;
21949;SDS011;11139;51.284;7.226;2024-03-06T06:13:55;17.40;;;11.40;;
21949;SDS011;11139;51.284;7.226;2024-03-06T06:16:21;16.95;;;11.75;;
21949;SDS011;11139;51.284;7.226;2024-03-06T06:18:47;15.50;;;10.23;;
21949;SDS011;11139;51.284;7.226;2024-03-06T06:21:12;14.73;;;10.75;;
21949;SDS011;11139;51.284;7.226;2024-03-06T06:23:38;17.08;;;11.70;;
21949;SDS011;11139;51.284;7.226;2024-03-06T06:26:04;17.20;;;11.70;;
21949;SDS011;11139;51.284;7.226;2024-03-06T06:28:30;17.80;;;11.38;;
21949;SDS011;11139;51.284;7.226;2024-03-06T06:30:55;17.70;;;11.70;;
21949;SDS011;11139;51.284;7.226;2024-03-06T06:33:21;19.65;;;12.18;;
21949;SDS011;11139;51.284;7.226;2024-03-06T06:35:47;16.85;;;10.77;;
21949;SDS011;11139;51.284;7.226;2024-03-06T06:38:13;18.95;;;11.35;;
21949;SDS011;11139;51.284;7.226;2024-03-06T06:40:39;17.92;;;11.52;;
21949;SDS011;11139;51.284;7.226;2024-03-06T06:43:05;17.85;;;10.98;;
21949;SDS011;11139;51.284;7.226;2024-03-06T06:45:31;19.67;;;12.68;;
21949;SDS011;11139;51.284;7.226;2024-03-06T06:47:57;21.88;;;12.32;;
21949;SDS011;11139;51.284;7.226;2024-03-06T06:50:23;19.17;;;12.15;;
21949;SDS011;11139;51.284;7.226;2024-03-06T06:52:51;18.88;;;12.13;;
21949;SDS011;11139;51.284;7.226;2024-03-06T06:55:16;17.15;;;11.90;;
21949;SDS011;11139;51.284;7.226;2024-03-06T06:57:43;23.48;;;14.52;;
21949;SDS011;11139;51.284;7.226;2024-03-06T07:00:09;22.27;;;12.82;;
21949;SDS011;11139;51.284;7.226;2024-03-06T07:02:38;23.65;;;14.77;;
21949;SDS011;11139;51.284;7.226;2024-03-06T07:05:04;23.00;;;13.80;;
21949;SDS011;11139;51.284;7.226;2024-03-06T07:07:30;21.90;;;13.90;;
21949;SDS011;11139;51.284;7.226;2024-03-06T07:09:56;26.60;;;15.18;;
21949;SDS011;11139;51.284;7.226;2024-03-06T07:12:22;23.33;;;13.77;;
21949;SDS011;11139;51.284;7.226;2024-03-06T07:14:48;21.42;;;13.05;;
21949;SDS011;11139;51.284;7.226;2024-03-06T07:17:13;22.67;;;14.07;;
21949;SDS011;11139;51.284;7.226;2024-03-06T07:19:39;23.90;;;14.45;;
21949;SDS011;11139;51.284;7.226;2024-03-06T07:22:05;22.65;;;15.02;;
21949;SDS011;11139;51.284;7.226;2024-03-06T07:24:31;20.30;;;12.82;;
21949;SDS011;11139;51.284;7.226;2024-03-06T07:26:56;19.15;;;13.05;;
21949;SDS011;11139;51.284;7.226;2024-03-06T07:29:22;21.20;;;14.32;;
21949;SDS011;11139;51.284;7.226;2024-03-06T07:31:48;23.98;;;14.95;;
21949;SDS011;11139;51.284;7.226;2024-03-06T07:34:13;22.95;;;14.32;;
21949;SDS011;11139;51.284;7.226;2024-03-06T07:36:42;23.67;;;14.98;;
21949;SDS011;11139;51.284;7.226;2024-03-06T07:39:08;22.63;;;13.77;;
21949;SDS011;11139;51.284;7.226;2024-03-06T07:41:34;22.75;;;14.50;;
21949;SDS011;11139;51.284;7.226;2024-03-06T07:44:00;19.60;;;12.68;;
21949;SDS011;11139;51.284;7.226;2024-03-06T07:46:26;21.98;;;14.07;;
21949;SDS011;11139;51.284;7.226;2024-03-06T07:48:51;24.95;;;14.43;;
21949;SDS011;11139;51.284;7.226;2024-03-06T07:51:17;20.75;;;13.05;;
21949;SDS011;11139;51.284;7.226;2024-03-06T07:53:43;22.70;;;12.68;;
21949;SDS011;11139;51.284;7.226;2024-03-06T07:56:12;21.27;;;13.25;;
21949;SDS011;11139;51.284;7.226;2024-03-06T07:58:38;18.33;;;12.20;;
21949;SDS011;11139;51.284;7.226;2024-03-06T08:01:04;17.83;;;12.88;;
21949;SDS011;11139;51.284;7.226;2024-03-06T08:03:32;19.52;;;12.85;;
21949;SDS011;11139;51.284;7.226;2024-03-06T08:05:59;20.55;;;13.88;;
21949;SDS011;11139;51.284;7.226;2024-03-06T08:08:25;17.25;;;11.82;;
21949;SDS011;11139;51.284;7.226;2024-03-06T08:10:51;19.38;;;12.35;;
21949;SDS011;11139;51.284;7.226;2024-03-06T08:13:16;19.92;;;12.98;;
21949;SDS011;11139;51.284;7.226;2024-03-06T08:15:44;18.88;;;12.57;;
21949;SDS011;11139;51.284;7.226;2024-03-06T08:18:10;23.45;;;14.43;;
21949;SDS011;11139;51.284;7.226;2024-03-06T08:20:36;17.70;;;12.02;;
21949;SDS011;11139;51.284;7.226;2024-03-06T08:23:02;17.73;;;11.85;;
21949;SDS011;11139;51.284;7.226;2024-03-06T08:25:28;18.27;;;12.65;;
21949;SDS011;11139;51.284;7.226;2024-03-06T08:27:54;19.38;;;13.07;;
21949;SDS011;11139;51.284;7.226;2024-03-06T08:30:19;17.02;;;11.45;;
21949;SDS011;11139;51.284;7.226;2024-03-06T08:32:45;19.33;;;12.88;;
21949;SDS011;11139;51.284;7.226;2024-03-06T08:35:11;17.42;;;11.73;;
21949;SDS011;11139;51.284;7.226;2024-03-06T08:37:41;17.45;;;11.35;;
21949;SDS011;11139;51.284;7.226;2024-03-06T08:40:07;18.27;;;13.00;;
21949;SDS011;11139;51.284;7.226;2024-03-06T08:42:39;20.80;;;12.85;;
21949;SDS011;11139;51.284;7.226;2024-03-06T08:45:15;18.50;;;12.52;;
21949;SDS011;11139;51.284;7.226;2024-03-06T08:47:41;19.08;;;12.27;;
21949;SDS011;11139;51.284;7.226;2024-03-06T08:50:09;18.70;;;12.35;;
21949;SDS011;11139;51.284;7.226;2024-03-06T08:52:35;20.50;;;13.73;;
21949;SDS011;11139;51.284;7.226;2024-03-06T08:55:01;17.88;;;13.02;;
21949;SDS011;11139;51.284;7.226;2024-03-06T08:57:32;20.00;;;12.73;;
21949;SDS011;11139;51.284;7.226;2024-03-06T08:59:58;18.70;;;12.40;;
21949;SDS011;11139;51.284;7.226;2024-03-06T09:02:24;17.60;;;12.15;;
21949;SDS011;11139;51.284;7.226;2024-03-06T09:04:50;21.23;;;13.60;;
21949;SDS011;11139;51.284;7.226;2024-03-06T09:07:19;19.25;;;12.27;;
21949;SDS011;11139;51.284;7.226;2024-03-06T09:09:48;18.52;;;12.00;;
21949;SDS011;11139;51.284;7.226;2024-03-06T09:12:16;19.27;;;13.32;;
21949;SDS011;11139;51.284;7.226;2024-03-06T09:14:42;18.13;;;12.45;;
21949;SDS011;11139;51.284;7.226;2024-03-06T09:17:09;21.27;;;13.35;;
21949;SDS011;11139;51.284;7.226;2024-03-06T09:19:38;21.45;;;12.98;;
21949;SDS011;11139;51.284;7.226;2024-03-06T09:22:03;20.65;;;12.38;;
21949;SDS011;11139;51.284;7.226;2024-03-06T09:24:29;18.98;;;12.55;;
21949;SDS011;11139;51.284;7.226;2024-03-06T09:26:55;20.10;;;12.52;;
21949;SDS011;11139;51.284;7.226;2024-03-06T09:29:21;20.55;;;12.70;;
21949;SDS011;11139;51.284;7.226;2024-03-06T09:31:46;20.70;;;13.55;;
21949;SDS011;11139;51.284;7.226;2024-03-06T09:34:13;22.35;;;13.63;;
21949;SDS011;11139;51.284;7.226;2024-03-06T09:36:40;21.60;;;13.32;;
21949;SDS011;11139;51.284;7.226;2024-03-06T09:39:15;24.08;;;13.43;;
21949;SDS011;11139;51.284;7.226;2024-03-06T09:41:45;21.45;;;13.57;;
21949;SDS011;11139;51.284;7.226;2024-03-06T09:44:12;19.02;;;12.57;;
21949;SDS011;11139;51.284;7.226;2024-03-06T09:46:44;21.02;;;13.10;;
21949;SDS011;11139;51.284;7.226;2024-03-06T09:49:11;19.20;;;12.43;;
21949;SDS011;11139;51.284;7.226;2024-03-06T09:51:40;19.83;;;13.50;;
21949;SDS011;11139;51.284;7.226;2024-03-06T09:54:12;23.75;;;15.82;;
21949;SDS011;11139;51.284;7.226;2024-03-06T09:56:44;20.20;;;13.52;;
21949;SDS011;11139;51.284;7.226;2024-03-06T09:59:11;21.35;;;12.63;;
21949;SDS011;11139;51.284;7.226;2024-03-06T10:01:46;21.50;;;13.05;;
21949;SDS011;11139;51.284;7.226;2024-03-06T10:06:47;18.45;;;11.88;;
21949;SDS011;11139;51.284;7.226;2024-03-06T10:09:17;18.52;;;12.32;;
21949;SDS011;11139;51.284;7.226;2024-03-06T10:11:44;19.38;;;12.93;;
21949;SDS011;11139;51.284;7.226;2024-03-06T10:14:10;19.00;;;12.07;;
21949;SDS011;11139;51.284;7.226;2024-03-06T10:16:37;19.35;;;13.38;;
21949;SDS011;11139;51.284;7.226;2024-03-06T10:19:18;19.77;;;12.90;;
21949;SDS011;11139;51.284;7.226;2024-03-06T10:21:47;20.20;;;12.93;;
21949;SDS011;11139;51.284;7.226;2024-03-06T10:24:21;20.73;;;13.18;;
21949;SDS011;11139;51.284;7.226;2024-03-06T10:26:49;20.30;;;12.80;;
21949;SDS011;11139;51.284;7.226;2024-03-06T10:29:17;21.05;;;12.73;;
21949;SDS011;11139;51.284;7.226;2024-03-06T10:31:47;20.77;;;13.02;;
21949;SDS011;11139;51.284;7.226;2024-03-06T10:34:17;21.58;;;12.15;;
21949;SDS011;11139;51.284;7.226;2024-03-06T10:36:43;17.70;;;11.52;;
21949;SDS011;11139;51.284;7.226;2024-03-06T10:39:10;19.75;;;12.80;;
21949;SDS011;11139;51.284;7.226;2024-03-06T10:41:39;21.13;;;12.77;;
21949;SDS011;11139;51.284;7.226;2024-03-06T10:44:07;23.25;;;13.65;;
21949;SDS011;11139;51.284;7.226;2024-03-06T10:46:43;20.50;;;13.02;;
21949;SDS011;11139;51.284;7.226;2024-03-06T10:49:12;21.35;;;13.32;;
21949;SDS011;11139;51.284;7.226;2024-03-06T10:51:40;23.90;;;13.85;;
21949;SDS011;11139;51.284;7.226;2024-03-06T10:54:08;20.25;;;13.80;;
21949;SDS011;11139;51.284;7.226;2024-03-06T10:56:36;20.30;;;12.85;;
21949;SDS011;11139;51.284;7.226;2024-03-06T11:01:30;20.20;;;13.10;;
21949;SDS011;11139;51.284;7.226;2024-03-06T11:03:57;19.25;;;12.65;;
21949;SDS011;11139;51.284;7.226;2024-03-06T11:06:25;19.20;;;12.35;;
21949;SDS011;11139;51.284;7.226;2024-03-06T11:08:51;21.95;;;12.95;;
21949;SDS011;11139;51.284;7.226;2024-03-06T11:11:21;20.65;;;13.40;;
21949;SDS011;11139;51.284;7.226;2024-03-06T11:13:50;20.15;;;12.30;;
21949;SDS011;11139;51.284;7.226;2024-03-06T11:16:20;19.38;;;12.10;;
21949;SDS011;11139;51.284;7.226;2024-03-06T11:18:52;18.52;;;12.27;;
21949;SDS011;11139;51.284;7.226;2024-03-06T11:21:33;19.00;;;11.98;;
21949;SDS011;11139;51.284;7.226;2024-03-06T11:24:40;18.27;;;12.27;;
21949;SDS011;11139;51.284;7.226;2024-03-06T11:26:55;23.17;;;12.98;;
21949;SDS011;11139;51.284;7.226;2024-03-06T11:29:27;19.25;;;11.32;;
21949;SDS011;11139;51.284;7.226;2024-03-06T11:32:00;19.05;;;12.25;;
21949;SDS011;11139;51.284;7.226;2024-03-06T11:34:27;18.42;;;11.55;;
21949;SDS011;11139;51.284;7.226;2024-03-06T11:36:58;17.35;;;11.55;;
21949;SDS011;11139;51.284;7.226;2024-03-06T11:39:27;19.15;;;11.82;;
21949;SDS011;11139;51.284;7.226;2024-03-06T11:41:59;17.52;;;12.07;;
21949;SDS011;11139;51.284;7.226;2024-03-06T11:44:24;17.98;;;12.20;;
21949;SDS011;11139;51.284;7.226;2024-03-06T11:49:28;19.30;;;12.10;;
21949;SDS011;11139;51.284;7.226;2024-03-06T11:52:02;17.02;;;10.88;;
21949;SDS011;11139;51.284;7.226;2024-03-06T11:54:33;17.15;;;11.43;;
21949;SDS011;11139;51.284;7.226;2024-03-06T11:57:00;17.75;;;11.65;;
21949;SDS011;11139;51.284;7.226;2024-03-06T11:59:31;19.20;;;11.82;;
21949;SDS011;11139;51.284;7.226;2024-03-06T12:02:03;17.35;;;10.38;;
21949;SDS011;11139;51.284;7.226;2024-03-06T12:04:31;15.32;;;10.15;;
21949;SDS011;11139;51.284;7.226;2024-03-06T12:09:25;17.73;;;11.10;;
21949;SDS011;11139;51.284;7.226;2024-03-06T12:11:51;18.65;;;11.80;;
21949;SDS011;11139;51.284;7.226;2024-03-06T12:14:18;18.45;;;11.60;;
21949;SDS011;11139;51.284;7.226;2024-03-06T12:16:57;19.70;;;12.65;;
21949;SDS011;11139;51.284;7.226;2024-03-06T12:19:27;15.20;;;10.75;;
21949;SDS011;11139;51.284;7.226;2024-03-06T12:21:53;18.90;;;11.98;;
21949;SDS011;11139;51.284;7.226;2024-03-06T12:24:19;18.77;;;11.98;;
21949;SDS011;11139;51.284;7.226;2024-03-06T12:26:45;21.00;;;12.50;;
21949;SDS011;11139;51.284;7.226;2024-03-06T12:29:16;16.50;;;10.98;;
21949;SDS011;11139;51.284;7.226;2024-03-06T12:31:46;19.77;;;12.95;;
21949;SDS011;11139;51.284;7.226;2024-03-06T12:34:15;18.20;;;11.30;;
21949;SDS011;11139;51.284;7.226;2024-03-06T12:36:44;18.40;;;11.45;;
21949;SDS011;11139;51.284;7.226;2024-03-06T12:39:10;16.83;;;11.18;;
21949;SDS011;11139;51.284;7.226;2024-03-06T12:41:43;19.52;;;12.20;;
21949;SDS011;11139;51.284;7.226;2024-03-06T12:44:09;17.02;;;11.27;;
21949;SDS011;11139;51.284;7.226;2024-03-06T12:46:35;19.70;;;10.27;;
21949;SDS011;11139;51.284;7.226;2024-03-06T12:49:00;15.23;;;10.13;;
21949;SDS011;11139;51.284;7.226;2024-03-06T12:51:27;17.25;;;10.68;;
21949;SDS011;11139;51.284;7.226;2024-03-06T12:53:52;18.02;;;10.90;;
21949;SDS011;11139;51.284;7.226;2024-03-06T12:56:18;17.17;;;10.63;;
21949;SDS011;11139;51.284;7.226;2024-03-06T12:58:44;18.08;;;11.05;;
21949;SDS011;11139;51.284;7.226;2024-03-06T13:01:10;16.25;;;11.48;;
21949;SDS011;11139;51.284;7.226;2024-03-06T13:03:36;15.77;;;10.57;;
21949;SDS011;11139;51.284;7.226;2024-03-06T13:06:03;15.70;;;10.85;;
21949;SDS011;11139;51.284;7.226;2024-03-06T13:08:29;15.00;;;10.30;;
21949;SDS011;11139;51.284;7.226;2024-03-06T13:10:55;15.05;;;10.50;;
21949;SDS011;11139;51.284;7.226;2024-03-06T13:13:21;17.42;;;10.60;;
21949;SDS011;11139;51.284;7.226;2024-03-06T13:15:51;13.48;;;9.57;;
21949;SDS011;11139;51.284;7.226;2024-03-06T13:18:17;15.55;;;9.77;;
21949;SDS011;11139;51.284;7.226;2024-03-06T13:20:43;18.30;;;10.63;;
21949;SDS011;11139;51.284;7.226;2024-03-06T13:23:10;15.98;;;9.63;;
21949;SDS011;11139;51.284;7.226;2024-03-06T13:25:35;12.88;;;8.73;;
21949;SDS011;11139;51.284;7.226;2024-03-06T13:28:01;17.27;;;10.32;;
21949;SDS011;11139;51.284;7.226;2024-03-06T13:30:28;16.33;;;9.77;;
21949;SDS011;11139;51.284;7.226;2024-03-06T13:32:53;15.90;;;10.38;;
21949;SDS011;11139;51.284;7.226;2024-03-06T13:35:19;15.57;;;10.52;;
21949;SDS011;11139;51.284;7.226;2024-03-06T13:37:45;15.43;;;10.80;;
21949;SDS011;11139;51.284;7.226;2024-03-06T13:40:12;16.23;;;10.65;;
21949;SDS011;11139;51.284;7.226;2024-03-06T13:42:44;16.08;;;10.35;;
21949;SDS011;11139;51.284;7.226;2024-03-06T13:45:10;15.48;;;11.13;;
21949;SDS011;11139;51.284;7.226;2024-03-06T13:47:39;18.83;;;11.52;;
21949;SDS011;11139;51.284;7.226;2024-03-06T13:50:07;16.55;;;11.02;;
21949;SDS011;11139;51.284;7.226;2024-03-06T13:52:36;18.05;;;12.45;;
21949;SDS011;11139;51.284;7.226;2024-03-06T13:55:03;14.50;;;11.07;;
21949;SDS011;11139;51.284;7.226;2024-03-06T13:57:30;16.25;;;11.45;;
21949;SDS011;11139;51.284;7.226;2024-03-06T13:59:58;18.98;;;12.68;;
21949;SDS011;11139;51.284;7.226;2024-03-06T14:02:43;19.23;;;12.75;;
21949;SDS011;11139;51.284;7.226;2024-03-06T14:05:12;18.58;;;12.80;;
21949;SDS011;11139;51.284;7.226;2024-03-06T14:07:39;18.92;;;11.85;;
21949;SDS011;11139;51.284;7.226;2024-03-06T14:10:05;17.20;;;12.75;;
21949;SDS011;11139;51.284;7.226;2024-03-06T14:12:33;21.55;;;13.00;;
21949;SDS011;11139;51.284;7.226;2024-03-06T14:15:00;21.55;;;14.18;;
21949;SDS011;11139;51.284;7.226;2024-03-06T14:17:26;16.25;;;12.70;;
21949;SDS011;11139;51.284;7.226;2024-03-06T14:19:51;19.63;;;13.02;;
21949;SDS011;11139;51.284;7.226;2024-03-06T14:22:17;19.48;;;12.50;;
21949;SDS011;11139;51.284;7.226;2024-03-06T14:24:43;21.83;;;14.38;;
21949;SDS011;11139;51.284;7.226;2024-03-06T14:27:08;21.15;;;13.70;;
21949;SDS011;11139;51.284;7.226;2024-03-06T14:29:34;19.42;;;12.68;;
21949;SDS011;11139;51.284;7.226;2024-03-06T14:32:00;19.08;;;12.85;;